Aviation Digital Data Service (ADDS)

Output produced by METARs form (0900 UTC 23 July 2019)
found at http://www.aviationweather.gov/metar/data/
 
Forecast for: EDDG (MUENSTER/OSNABRU, DE)
Text: TAF EDDG 230500Z 2306/2406 VRB03KT CAVOK
Forecast period: 0600 UTC 23 July 2019 to 0600 UTC 24 July 2019
Forecast type: FROM: standard forecast or significant change
Winds: variable direction winds at 3 MPH (3 knots; 1.5 m/s)
Visibility: 6 or more miles 10+ km)
Ceiling: unknown
Clouds: missing
Weather: NSW  (no significant weather)